Meteo Giornale » Osservazioni meteo Stati Uniti (USA) » Chanute Martin Johnson
ore: 18:52 - Osservazioni Meteo Chanute Martin Johnson
Lat. 37° 40' N Lon. 95° 29' W Alt. 305 metri s.l.m.
36 °C
Sereno
Temp. 24 Ore
24 °C
38 °C
Sud
20.3 Km/h
Dew point 14 °C
Umidità 26 %
Visibilità 10 Km
Il sole sorge alle ore 06:51
Il sole tramonta alle ore 19:52
| Data e Ora | Cielo e Fenomeni | T °C | DP °C | Um. % | Pres. hPa | Vis. km | Vento km/h | |
|---|---|---|---|---|---|---|---|---|
| Oggi h: 18:52 | Sereno | 36 | 14 | 26 | 1014 | 10 | S 20.3 | |
| Oggi h: 17:52 | Sereno | 37 | 14 | 25 | 1014 | 10 | S 22.2 | |
| Oggi h: 16:52 | Sereno | 38 | 14 | 24 | 1014 | 10 | S 20.3 | |
| Oggi h: 15:52 | Sereno | 38 | 15 | 25 | 1014 | 10 | S/SO 16.7 | |
| Oggi h: 14:52 | Sereno | 38 | 16 | 27 | 1015 | 10 | S/SO 16.7 | |
| Oggi h: 13:52 | Sereno | 37 | 15 | 27 | 1015 | 10 | S/SO 22.2 | |
| Oggi h: 12:52 | Sereno | 36 | 17 | 32 | 1016 | 10 | SO 20.3 | |
| Oggi h: 11:52 | Sereno | 35 | 17 | 34 | 1017 | 10 | SO 20.3 | |
| Oggi h: 10:52 | Sereno | 32 | 17 | 40 | 1017 | 10 | SO 18.5 | |
| Oggi h: 09:52 | Sereno | 31 | 17 | 43 | 1017 | 10 | S/SO 22.2 | |
| Oggi h: 08:52 | Sereno | 28 | 17 | 51 | 1017 | 10 | S/SO 25.9 | |
| Oggi h: 07:52 | Sereno | 26 | 17 | 57 | 1016 | 10 | S 14.8 | |
| Oggi h: 06:52 | Sereno | 24 | 16 | 60 | 1016 | 10 | S 13 | |
| Oggi h: 05:52 | Sereno | 25 | 16 | 57 | 1015 | 10 | S 14.8 | |
| Oggi h: 04:52 | Sereno | 26 | 16 | 54 | 1015 | 10 | S 14.8 | |
| Oggi h: 03:52 | Sereno | 26 | 16 | 54 | 1014 | 10 | S 16.7 | |
| Oggi h: 02:52 | Sereno | 27 | 16 | 50 | 1014 | 10 | S 14.8 | |
| Oggi h: 01:52 | Sereno | 27 | 16 | 50 | 1014 | 10 | S 14.8 | |
| Oggi h: 00:52 | Sereno | 29 | 15 | 42 | 1013 | 10 | S/SE 14.8 | |
| Ieri h: 23:52 | Sereno | 29 | 14 | 39 | 1013 | 10 | S 14.8 | |
| Ieri h: 22:52 | Sereno | 31 | 15 | 37 | 1013 | 10 | S 16.7 | |
| Ieri h: 21:52 | Sereno | 29 | 16 | 45 | 1013 | 10 | S/SE 13 | |
| Ieri h: 20:52 | Sereno | 31 | 16 | 40 | 1012 | 10 | S 14.8 | |
| Ieri h: 19:52 | Sereno | 33 | 15 | 33 | 1011 | 10 | S/SE 14.8 | |



